Terminal Aerodrome Forecast
Issued by NWS Sterling, VA

Current Version | Previous Version | Text Only | Print | Product List | Glossary Off
Versions: 1 2 3 4 5 6 7 8 9 10 11 12 13 14 15 16 17 18 19 20 21 22 23 24 25 26

000
FTUS41 KLWX 231015 AAB
TAFDCA
TAF AMD
KDCA 231015Z 2310/2406 21010KT P6SM -SHRA OVC070
      TEMPO 2310/2311 3SM SHRA OVC045
     FM231200 20010KT P6SM -SHRA OVC015
     FM231400 22013G21KT P6SM BKN040 OVC070
     FM240300 22010KT P6SM -SHRA BKN050=

USA.gov is the U.S. government's official web portal to all federal, state and local government web resources and services.